Los Angeles, California
Traffic Map
Current Weather Conditions
Los Angeles, California
Clear
Clear
76°
Feels Like: 76°
Wind Chill: 76° Ceiling: Unl
Heat Index: 76° Visibility: 9mi
Dew Point: 62° Wind: 6mph
Humidity: 62% Direction: 270° (W)
Pressure: 29.93in Gusts: 0mph
Raw Report DataKCQT 232047Z AUTO 27005KT 9SM CLR 24/17 A2993 RMK AO2 SLP134 T02440167 56016
Traffic Incident Summary
Active as of:
Severity:
Category:
InformationThere was an issue retrieving the traffic information for this location. Please try a different location or try again shortly.
Advertisements